Time;durP1;ratioP1;P1;durP2;ratioP2;P2;SDS_P1;SDS_P2;PMS_P1;PMS_P2;Temp;Humidity;BMP_temperature;BMP_pressure;BME280_temperature;BME280_humidity;BME280_pressure;Samples;Min_cycle;Max_cycle;Signal;HPM_P1;HPM_P2
2021/12/30 00:02:22;;;;;;;32.17;19.20;;;;;;;-1.85;64.74;100669.01;1661963;85;21084;-68
2021/12/30 00:04:49;;;;;;;28.90;18.70;;;;;;;-1.89;64.78;100667.73;1675375;84;21034;-68
2021/12/30 00:07:16;;;;;;;41.60;24.67;;;;;;;-1.90;64.82;100666.11;1673474;84;21054;-68
2021/12/30 00:09:43;;;;;;;40.00;23.80;;;;;;;-1.87;64.79;100667.08;1679221;84;22062;-68
2021/12/30 00:12:10;;;;;;;47.03;28.45;;;;;;;-1.92;64.83;100662.84;1689776;84;21137;-67
2021/12/30 00:14:40;;;;;;;43.17;26.05;;;;;;;-2.05;64.92;100666.02;1663654;84;21709;-67
2021/12/30 00:17:07;;;;;;;47.30;28.50;;;;;;;-2.16;65.15;100664.60;1697914;84;21015;-69
2021/12/30 00:19:34;;;;;;;48.87;28.47;;;;;;;-2.19;65.33;100668.87;1681461;84;21071;-69
2021/12/30 00:22:00;;;;;;;50.05;28.27;;;;;;;-2.16;65.52;100668.53;1666269;85;21520;-68
2021/12/30 00:24:28;;;;;;;45.43;26.37;;;;;;;-2.37;65.84;100659.97;1663046;85;21091;-68
2021/12/30 00:26:55;;;;;;;49.35;29.42;;;;;;;-2.30;65.85;100660.10;1666781;85;21113;-69
2021/12/30 00:29:24;;;;;;;51.50;29.37;;;;;;;-2.31;65.88;100663.68;1621079;87;21179;-68
2021/12/30 00:31:51;;;;;;;49.75;29.85;;;;;;;-2.32;66.00;100664.67;1672616;85;21467;-67
2021/12/30 00:34:18;;;;;;;50.55;29.55;;;;;;;-2.34;66.10;100664.02;1663225;85;21118;-68
2021/12/30 00:36:44;;;;;;;50.75;29.95;;;;;;;-2.29;66.14;100668.27;1676935;85;21107;-68
2021/12/30 00:39:11;;;;;;;50.52;30.43;;;;;;;-2.27;66.12;100682.47;1677647;85;21062;-68
2021/12/30 00:41:38;;;;;;;50.05;30.15;;;;;;;-2.28;66.14;100677.73;1659182;85;21129;-68
2021/12/30 00:44:05;;;;;;;54.48;31.10;;;;;;;-2.29;66.18;100674.80;1675925;85;21071;-68
2021/12/30 00:46:32;;;;;;;50.15;30.05;;;;;;;-2.30;66.22;100674.48;1659057;85;21138;-68
2021/12/30 00:48:59;;;;;;;55.88;32.17;;;;;;;-2.34;66.26;100671.87;1675403;85;21094;-68
2021/12/30 00:51:25;;;;;;;51.53;30.92;;;;;;;-2.30;66.41;100672.34;1676270;85;21084;-68
2021/12/30 00:53:53;;;;;;;50.52;30.85;;;;;;;-2.23;66.44;100664.97;1659635;85;21111;-68
2021/12/30 00:56:23;;;;;;;54.70;31.77;;;;;;;-2.18;66.39;100671.80;1675835;84;21035;-68
2021/12/30 00:58:52;;;;;;;56.08;29.23;;;;;;;-2.12;66.41;100664.58;1667316;85;21989;-68
2021/12/30 01:01:18;;;;;;;55.43;31.77;;;;;;;-2.01;66.36;100664.67;1676844;85;21067;-69
2021/12/30 01:03:47;;;;;;;53.38;31.55;;;;;;;-2.01;66.24;100665.98;1645120;84;21095;-69
2021/12/30 01:06:14;;;;;;;55.88;31.77;;;;;;;-2.10;66.26;100664.92;1674114;84;21554;-69
2021/12/30 01:08:44;;;;;;;52.20;30.55;;;;;;;-2.19;66.35;100666.25;1666349;85;21152;-69
2021/12/30 01:11:12;;;;;;;53.68;30.80;;;;;;;-2.22;66.45;100665.28;1662617;85;21544;-69
2021/12/30 01:13:41;;;;;;;53.28;30.02;;;;;;;-2.30;66.45;100662.72;1662080;85;21062;-69
2021/12/30 01:16:18;;;;;;;52.00;31.57;;;;;;;-2.40;66.56;100660.30;1664577;85;21062;-69
2021/12/30 01:21:34;;;;;;;50.65;28.80;;;;;;;-2.44;66.73;100657.68;1647742;85;21156;-68
2021/12/30 01:24:03;;;;;;;51.28;30.37;;;;;;;-2.51;66.80;100654.61;1663168;85;21954;-68
2021/12/30 01:26:31;;;;;;;50.05;29.00;;;;;;;-2.53;67.04;100660.49;1635605;85;21078;-68
2021/12/30 01:28:57;;;;;;;46.35;28.98;;;;;;;-2.45;67.16;100668.33;1645872;85;21537;-68
2021/12/30 01:31:26;;;;;;;48.23;28.87;;;;;;;-2.35;67.11;100665.02;1661885;85;21062;-68
2021/12/30 01:33:55;;;;;;;50.73;30.72;;;;;;;-2.26;67.06;100664.50;1675365;85;21130;-68
2021/12/30 01:36:26;;;;;;;48.33;29.55;;;;;;;-2.16;67.03;100661.98;1657383;85;21106;-68
2021/12/30 01:38:55;;;;;;;51.65;29.50;;;;;;;-2.05;66.95;100669.94;1667807;85;21053;-69
2021/12/30 01:41:22;;;;;;;47.38;28.77;;;;;;;-1.94;66.83;100668.73;1657122;85;21043;-68
2021/12/30 01:43:50;;;;;;;45.60;27.40;;;;;;;-1.91;66.62;100673.63;1655706;84;21055;-68
2021/12/30 01:46:18;;;;;;;49.40;27.80;;;;;;;-1.96;66.55;100671.53;1677711;85;21039;-69
2021/12/30 01:48:45;;;;;;;49.75;27.75;;;;;;;-2.08;66.48;100665.55;1658929;85;21507;-68
2021/12/30 01:51:11;;;;;;;60.58;31.97;;;;;;;-2.21;66.53;100669.52;1677724;85;21122;-68
2021/12/30 01:53:39;;;;;;;56.08;27.55;;;;;;;-2.31;66.51;100662.88;1671009;85;21109;-68
2021/12/30 01:56:07;;;;;;;51.18;27.00;;;;;;;-2.42;66.79;100662.76;1663389;85;21059;-68
2021/12/30 01:58:36;;;;;;;50.40;27.80;;;;;;;-2.48;66.95;100669.47;1677425;85;21582;-69
2021/12/30 02:01:05;;;;;;;50.43;26.57;;;;;;;-2.56;67.12;100676.55;1655238;85;21133;-68
2021/12/30 02:03:33;;;;;;;50.85;27.90;;;;;;;-2.55;67.29;100675.55;1666350;85;21545;-68
2021/12/30 02:06:02;;;;;;;47.38;25.57;;;;;;;-2.53;67.36;100682.72;1665013;85;21063;-68
2021/12/30 02:08:30;;;;;;;46.13;25.02;;;;;;;-2.49;67.42;100680.12;1670557;85;21084;-68
2021/12/30 02:10:58;;;;;;;46.95;25.60;;;;;;;-2.52;67.47;100683.06;1657635;85;21530;-68
2021/12/30 02:13:27;;;;;;;40.17;23.25;;;;;;;-2.55;67.60;100686.02;1663205;85;21125;-68
2021/12/30 02:16:00;;;;;;;44.25;23.60;;;;;;;-2.56;67.71;100685.70;1651226;85;21063;-68
2021/12/30 02:18:25;;;;;;;42.83;23.75;;;;;;;-2.60;67.77;100688.65;1645273;84;21057;-68
2021/12/30 02:20:56;;;;;;;39.25;23.35;;;;;;;-2.64;67.91;100696.98;1666840;85;21102;-69
2021/12/30 02:23:29;;;;;;;37.55;22.50;;;;;;;-2.68;68.03;100703.03;1677701;84;21019;-69
2021/12/30 02:26:03;;;;;;;37.13;22.00;;;;;;;-2.65;68.17;100706.62;1656789;85;21808;-68
2021/12/30 02:28:33;;;;;;;33.00;21.30;;;;;;;-2.62;68.25;100712.83;1664856;85;22132;-68
2021/12/30 02:31:12;;;;;;;30.85;19.55;;;;;;;-2.58;68.36;100706.77;1653716;85;21561;-68
2021/12/30 02:33:41;;;;;;;32.88;20.20;;;;;;;-2.57;68.36;100701.05;1671844;85;21029;-68
2021/12/30 02:36:08;;;;;;;33.98;20.65;;;;;;;-2.61;68.46;100698.77;1674408;85;21063;-67
2021/12/30 02:38:36;;;;;;;32.83;20.08;;;;;;;-2.58;68.57;100705.95;1678135;85;21004;-69
2021/12/30 02:41:03;;;;;;;31.37;19.37;;;;;;;-2.47;68.51;100701.67;1678472;85;21011;-67
2021/12/30 02:43:31;;;;;;;30.27;18.50;;;;;;;-2.38;68.49;100698.05;1679985;85;21590;-68
2021/12/30 02:45:59;;;;;;;31.68;19.20;;;;;;;-2.36;68.38;100696.91;1679323;85;20972;-67
2021/12/30 02:48:30;;;;;;;29.55;18.90;;;;;;;-2.36;68.34;100693.48;1679549;85;21055;-69
2021/12/30 02:51:01;;;;;;;28.65;18.73;;;;;;;-2.30;68.38;100698.03;1679590;85;21545;-68
2021/12/30 02:53:28;;;;;;;32.63;19.12;;;;;;;-2.19;68.42;100694.22;1679813;85;21574;-68
2021/12/30 02:55:55;;;;;;;31.15;19.37;;;;;;;-2.05;68.31;100704.46;1679239;85;21079;-68
2021/12/30 02:58:23;;;;;;;29.25;18.50;;;;;;;-1.93;68.16;100708.34;1679838;85;21069;-69
2021/12/30 03:00:54;;;;;;;30.80;19.12;;;;;;;-1.86;67.88;100709.28;1679176;85;21091;-68
2021/12/30 03:03:23;;;;;;;31.48;19.67;;;;;;;-1.81;67.74;100712.21;1680215;85;21116;-68
2021/12/30 03:05:52;;;;;;;34.45;19.40;;;;;;;-1.74;67.51;100708.41;1679087;85;21059;-69
2021/12/30 03:08:19;;;;;;;32.08;19.98;;;;;;;-1.72;67.33;100714.27;1675243;85;21011;-68
2021/12/30 03:10:50;;;;;;;34.98;19.62;;;;;;;-1.72;67.16;100716.39;1679344;85;21003;-68
2021/12/30 03:13:19;;;;;;;32.85;20.50;;;;;;;-1.75;67.08;100718.54;1652341;86;21588;-69
2021/12/30 03:15:47;;;;;;;34.00;20.20;;;;;;;-1.70;66.82;100718.36;1651581;86;21151;-69
2021/12/30 03:18:14;;;;;;;33.05;19.42;;;;;;;-1.67;66.71;100722.44;1652155;86;21024;-69
2021/12/30 03:20:41;;;;;;;32.23;20.02;;;;;;;-1.68;66.51;100720.32;1651781;86;21079;-69
2021/12/30 03:23:07;;;;;;;29.87;19.70;;;;;;;-1.74;66.42;100728.86;1652487;86;21055;-69
2021/12/30 03:25:35;;;;;;;34.70;21.12;;;;;;;-1.79;66.40;100729.85;1651938;86;20976;-69
2021/12/30 03:28:02;;;;;;;32.50;20.25;;;;;;;-1.81;66.42;100738.39;1652097;86;21104;-67
2021/12/30 03:30:28;;;;;;;35.35;20.25;;;;;;;-1.79;66.42;100741.64;1651764;86;21019;-69
2021/12/30 03:32:55;;;;;;;35.83;22.17;;;;;;;-1.76;66.39;100745.72;1652006;86;21094;-68
2021/12/30 03:35:22;;;;;;;35.50;21.85;;;;;;;-1.71;66.34;100753.39;1651686;86;20999;-67
2021/12/30 03:37:48;;;;;;;33.58;21.55;;;;;;;-1.65;66.31;100753.18;1652106;86;21094;-68
2021/12/30 03:40:16;;;;;;;33.50;22.17;;;;;;;-1.57;66.24;100750.53;1663330;85;21148;-68
2021/12/30 03:42:43;;;;;;;34.40;21.48;;;;;;;-1.51;66.14;100753.77;1679391;85;21008;-68
2021/12/30 03:45:12;;;;;;;37.50;23.02;;;;;;;-1.47;66.05;100747.19;1679571;85;21584;-69
2021/12/30 03:47:42;;;;;;;36.25;21.85;;;;;;;-1.41;65.88;100753.55;1679477;85;20997;-69
2021/12/30 03:50:18;;;;;;;36.45;22.15;;;;;;;-1.40;65.83;100755.17;1679441;85;21071;-67
2021/12/30 03:52:43;;;;;;;36.68;22.70;;;;;;;-1.33;65.75;100757.91;1679535;85;21129;-68
2021/12/30 03:55:10;;;;;;;35.50;22.32;;;;;;;-1.33;65.67;100760.03;1679261;85;21570;-69
2021/12/30 03:57:36;;;;;;;38.85;23.18;;;;;;;-1.41;65.51;100756.17;1679371;85;21011;-69
2021/12/30 04:00:05;;;;;;;36.45;22.42;;;;;;;-1.49;65.56;100756.20;1679008;85;21137;-69
2021/12/30 04:02:32;;;;;;;36.88;22.60;;;;;;;-1.52;65.57;100757.86;1677585;85;21521;-69
2021/12/30 04:04:59;;;;;;;37.80;23.12;;;;;;;-1.56;65.60;100761.82;1675575;85;21767;-68
2021/12/30 04:07:26;;;;;;;37.78;23.27;;;;;;;-1.54;65.58;100765.09;1673898;85;21114;-70
2021/12/30 04:09:53;;;;;;;37.35;22.50;;;;;;;-1.54;65.51;100765.09;1674317;85;21101;-69
2021/12/30 04:12:20;;;;;;;35.58;22.65;;;;;;;-1.55;65.48;100762.13;1679490;85;21107;-68
2021/12/30 04:14:47;;;;;;;37.50;22.35;;;;;;;-1.52;65.57;100772.27;1679388;85;21419;-68
2021/12/30 04:17:15;;;;;;;38.02;22.30;;;;;;;-1.47;65.51;100768.65;1679378;85;21128;-68
2021/12/30 04:19:42;;;;;;;35.98;22.37;;;;;;;-1.45;65.48;100769.27;1679344;85;21016;-68
2021/12/30 04:22:14;;;;;;;36.17;22.13;;;;;;;-1.46;65.44;100766.34;1679467;85;21078;-68
2021/12/30 04:24:38;;;;;;;32.42;20.27;;;;;;;-1.47;65.45;100773.89;1679739;85;21059;-68
2021/12/30 04:27:05;;;;;;;31.85;19.77;;;;;;;-1.45;65.43;100784.52;1679533;85;21000;-68
2021/12/30 04:29:32;;;;;;;31.05;19.52;;;;;;;-1.45;65.34;100788.92;1679438;85;21542;-69
2021/12/30 04:31:59;;;;;;;31.50;19.82;;;;;;;-1.49;65.27;100795.50;1678182;85;21538;-69
2021/12/30 04:34:25;;;;;;;32.63;20.35;;;;;;;-1.55;65.17;100789.63;1678322;85;21000;-68
2021/12/30 04:36:53;;;;;;;33.65;20.12;;;;;;;-1.58;65.21;100793.44;1677692;84;21006;-69
2021/12/30 04:39:19;;;;;;;31.73;19.10;;;;;;;-1.58;65.22;100789.51;1679139;85;21023;-69
2021/12/30 04:41:46;;;;;;;32.63;20.23;;;;;;;-1.56;65.22;100792.75;1679359;85;21471;-69
2021/12/30 04:44:13;;;;;;;33.13;19.37;;;;;;;-1.52;65.19;100797.96;1679360;85;21067;-69
2021/12/30 04:46:39;;;;;;;28.77;19.15;;;;;;;-1.51;65.15;100802.73;1679142;85;20964;-68
2021/12/30 04:49:07;;;;;;;32.23;19.50;;;;;;;-1.50;65.13;100803.05;1679652;85;20961;-68
2021/12/30 04:51:33;;;;;;;33.88;20.27;;;;;;;-1.51;65.09;100805.35;1678645;85;21122;-68
2021/12/30 04:54:00;;;;;;;31.97;20.40;;;;;;;-1.54;65.07;100800.45;1678639;85;21522;-68
2021/12/30 04:56:27;;;;;;;32.42;19.30;;;;;;;-1.56;65.08;100808.47;1677644;84;21470;-69
2021/12/30 04:58:53;;;;;;;34.25;20.12;;;;;;;-1.56;65.08;100811.59;1678314;85;21024;-70
2021/12/30 05:01:20;;;;;;;31.75;19.50;;;;;;;-1.57;65.10;100817.82;1677716;85;21123;-69
2021/12/30 05:03:48;;;;;;;29.75;19.75;;;;;;;-1.58;65.13;100822.25;1678071;85;21434;-69
2021/12/30 05:06:15;;;;;;;33.92;20.72;;;;;;;-1.61;65.16;100823.90;1678091;85;21527;-69
2021/12/30 05:08:41;;;;;;;30.95;19.65;;;;;;;-1.59;65.22;100825.02;1678597;85;21067;-68
2021/12/30 05:11:09;;;;;;;31.25;20.60;;;;;;;-1.57;65.19;100833.04;1679150;85;21126;-68
2021/12/30 05:13:37;;;;;;;33.30;21.17;;;;;;;-1.58;65.17;100837.13;1679563;85;21019;-68
2021/12/30 05:16:04;;;;;;;33.53;21.23;;;;;;;-1.58;65.21;100839.27;1679356;85;21106;-68
2021/12/30 05:18:33;;;;;;;34.23;20.37;;;;;;;-1.55;65.17;100835.47;1679656;84;20999;-68
2021/12/30 05:21:02;;;;;;;33.28;20.72;;;;;;;-1.58;65.18;100833.20;1679357;85;21549;-69
2021/12/30 05:23:28;;;;;;;30.00;18.77;;;;;;;-1.59;65.28;100836.31;1679503;85;20968;-69
2021/12/30 05:25:56;;;;;;;32.23;19.17;;;;;;;-1.58;65.29;100835.81;1678623;84;21024;-69
2021/12/30 05:28:22;;;;;;;32.80;20.60;;;;;;;-1.54;65.32;100841.05;1679280;85;21130;-68
2021/12/30 05:30:49;;;;;;;29.72;19.70;;;;;;;-1.53;65.33;100834.82;1677888;85;21491;-68
2021/12/30 05:33:16;;;;;;;31.02;19.35;;;;;;;-1.50;65.31;100830.55;1651065;85;20972;-68
2021/12/30 05:35:43;;;;;;;32.85;19.27;;;;;;;-1.47;65.32;100834.14;1678151;85;21512;-68
2021/12/30 05:38:09;;;;;;;32.67;19.32;;;;;;;-1.45;65.30;100832.99;1679154;85;21016;-69
2021/12/30 05:40:39;;;;;;;31.70;20.32;;;;;;;-1.44;65.30;100842.97;1679507;85;21111;-68
2021/12/30 05:43:05;;;;;;;30.80;19.70;;;;;;;-1.43;65.30;100844.09;1679444;85;22156;-68
2021/12/30 05:45:32;;;;;;;33.40;19.70;;;;;;;-1.39;65.33;100840.64;1679516;85;21566;-68
2021/12/30 05:47:59;;;;;;;29.57;19.12;;;;;;;-1.36;65.31;100839.48;1678196;85;21512;-69
2021/12/30 05:50:29;;;;;;;31.45;19.25;;;;;;;-1.36;65.27;100843.41;1677771;85;20977;-69
2021/12/30 05:52:56;;;;;;;29.92;18.45;;;;;;;-1.36;65.30;100846.84;1677597;85;21466;-69
2021/12/30 05:55:23;;;;;;;32.03;19.90;;;;;;;-1.32;65.34;100857.80;1678103;85;21519;-69
2021/12/30 05:57:52;;;;;;;34.03;20.30;;;;;;;-1.28;65.35;100857.30;1677803;85;21174;-67
2021/12/30 06:00:19;;;;;;;34.80;20.15;;;;;;;-1.26;65.24;100858.42;1678252;84;21019;-68
2021/12/30 06:02:46;;;;;;;34.00;19.98;;;;;;;-1.25;65.23;100862.20;1677983;85;21668;-69
2021/12/30 06:05:14;;;;;;;32.15;19.60;;;;;;;-1.23;65.18;100865.45;1677872;85;21526;-68
2021/12/30 06:07:43;;;;;;;29.05;18.67;;;;;;;-1.25;65.12;100865.30;1677785;85;21153;-68
2021/12/30 06:10:10;;;;;;;30.25;17.90;;;;;;;-1.29;65.14;100868.75;1677765;85;21545;-68
2021/12/30 06:12:38;;;;;;;33.58;19.10;;;;;;;-1.29;65.15;100864.82;1678073;85;21058;-68
2021/12/30 06:15:08;;;;;;;31.10;19.65;;;;;;;-1.27;65.13;100875.96;1678165;85;21017;-68
2021/12/30 06:17:37;;;;;;;31.87;19.30;;;;;;;-1.27;65.18;100877.77;1678486;85;21096;-69
2021/12/30 06:20:10;;;;;;;32.95;20.10;;;;;;;-1.26;65.19;100882.83;1678284;85;21846;-69
2021/12/30 06:22:38;;;;;;;35.33;22.45;;;;;;;-1.26;65.17;100881.52;1678082;85;21035;-69
2021/12/30 06:25:07;;;;;;;32.78;21.25;;;;;;;-1.25;65.25;100883.17;1673497;85;21047;-68
2021/12/30 06:27:33;;;;;;;34.78;21.85;;;;;;;-1.24;65.42;100895.27;1665475;85;20991;-69
2021/12/30 06:30:00;;;;;;;36.48;22.42;;;;;;;-1.18;65.41;100896.41;1663899;85;21211;-68
2021/12/30 06:32:27;;;;;;;36.30;22.40;;;;;;;-1.13;65.34;100902.43;1666535;85;22228;-68
2021/12/30 06:34:54;;;;;;;34.80;21.75;;;;;;;-1.10;65.37;100904.21;1665182;85;21094;-69
2021/12/30 06:37:20;;;;;;;35.45;21.75;;;;;;;-1.05;65.29;100903.71;1666964;85;21138;-69
2021/12/30 06:39:47;;;;;;;34.85;21.85;;;;;;;-1.01;65.22;100909.73;1668003;85;21023;-68
2021/12/30 06:42:14;;;;;;;33.05;21.07;;;;;;;-0.98;65.12;100903.34;1679691;84;21063;-69
2021/12/30 06:44:40;;;;;;;35.23;21.77;;;;;;;-0.95;65.05;100904.31;1679736;85;21520;-67
2021/12/30 06:47:09;;;;;;;35.65;21.15;;;;;;;-0.93;64.99;100902.31;1679401;84;22218;-68
2021/12/30 06:49:38;;;;;;;35.00;21.15;;;;;;;-0.87;65.00;100906.88;1679755;85;21526;-68
2021/12/30 06:52:09;;;;;;;33.15;20.92;;;;;;;-0.81;64.93;100904.87;1679331;85;20980;-68
2021/12/30 06:54:36;;;;;;;33.02;21.33;;;;;;;-0.73;64.91;100910.05;1679985;85;20964;-69
2021/12/30 06:57:05;;;;;;;36.15;21.82;;;;;;;-0.73;64.67;100908.73;1678901;85;21122;-68
2021/12/30 06:59:33;;;;;;;32.75;20.12;;;;;;;-0.75;64.60;100909.42;1677813;85;21434;-68
2021/12/30 07:02:00;;;;;;;35.15;21.12;;;;;;;-0.74;64.57;100918.91;1677777;85;21059;-68
2021/12/30 07:04:26;;;;;;;33.90;21.07;;;;;;;-0.73;64.54;100907.92;1678457;85;21020;-68
2021/12/30 07:06:53;;;;;;;34.23;20.57;;;;;;;-0.73;64.51;100907.42;1678084;85;21491;-68
2021/12/30 07:09:24;;;;;;;33.20;21.40;;;;;;;-0.69;64.50;100911.85;1679595;85;21165;-68
2021/12/30 07:11:51;;;;;;;34.20;20.23;;;;;;;-0.71;64.43;100910.70;1677508;85;21180;-69
2021/12/30 07:14:21;;;;;;;40.25;22.35;;;;;;;-0.72;64.54;100906.45;1677845;85;21056;-68
2021/12/30 07:16:48;;;;;;;36.10;21.62;;;;;;;-0.67;64.57;100905.11;1677642;85;20960;-70
2021/12/30 07:19:15;;;;;;;35.30;20.62;;;;;;;-0.63;64.60;100909.01;1677548;85;21099;-69
2021/12/30 07:21:45;;;;;;;34.60;21.48;;;;;;;-0.59;64.55;100906.34;1677394;85;20988;-68
2021/12/30 07:24:13;;;;;;;34.60;21.07;;;;;;;-0.55;64.51;100907.16;1677973;85;21003;-68
2021/12/30 07:26:40;;;;;;;36.68;22.40;;;;;;;-0.53;64.48;100911.73;1677959;85;21012;-69
2021/12/30 07:29:07;;;;;;;35.80;21.12;;;;;;;-0.52;64.42;100914.67;1677934;85;20963;-68
2021/12/30 07:31:35;;;;;;;33.78;20.37;;;;;;;-0.47;64.36;100907.58;1677910;85;21111;-69
2021/12/30 07:34:01;;;;;;;39.03;22.42;;;;;;;-0.50;64.29;100913.17;1678205;85;21118;-69
2021/12/30 07:36:28;;;;;;;40.23;23.60;;;;;;;-0.56;64.23;100915.19;1679050;85;21062;-69
2021/12/30 07:38:55;;;;;;;37.50;22.87;;;;;;;-0.66;64.21;100912.79;1679400;85;20976;-68
2021/12/30 07:41:23;;;;;;;38.42;23.02;;;;;;;-0.72;64.42;100913.02;1679620;85;21491;-69
2021/12/30 07:43:50;;;;;;;41.75;24.00;;;;;;;-0.66;64.57;100908.85;1679647;85;21102;-69
2021/12/30 07:46:17;;;;;;;40.43;23.90;;;;;;;-0.64;64.64;100911.32;1679297;85;21090;-68
2021/12/30 07:48:44;;;;;;;44.18;23.57;;;;;;;-0.54;64.68;100902.72;1679496;85;21189;-69
2021/12/30 07:51:11;;;;;;;36.83;22.48;;;;;;;-0.45;64.66;100914.79;1679268;85;21474;-68
2021/12/30 07:53:39;;;;;;;40.38;23.65;;;;;;;-0.41;64.59;100912.63;1679425;85;21063;-68
2021/12/30 07:56:10;;;;;;;37.58;23.30;;;;;;;-0.37;64.50;100907.34;1679338;85;20983;-70
2021/12/30 07:58:38;;;;;;;40.63;23.20;;;;;;;-0.34;64.44;100909.11;1665517;85;21187;-68
2021/12/30 08:01:05;;;;;;;40.38;22.77;;;;;;;-0.31;64.30;100914.51;1654792;85;21062;-68
2021/12/30 08:03:32;;;;;;;38.38;23.18;;;;;;;-0.31;64.27;100921.88;1651826;86;21066;-68
2021/12/30 08:05:58;;;;;;;40.33;22.98;;;;;;;-0.31;64.20;100916.63;1668039;85;21201;-69
2021/12/30 08:08:25;;;;;;;41.63;23.80;;;;;;;-0.28;64.17;100927.28;1679644;85;20991;-69
2021/12/30 08:10:53;;;;;;;41.98;23.92;;;;;;;-0.31;64.17;100929.76;1679105;85;21505;-68
2021/12/30 08:13:23;;;;;;;44.30;24.05;;;;;;;-0.34;64.22;100928.80;1679497;85;21518;-69
2021/12/30 08:15:51;;;;;;;44.85;23.90;;;;;;;-0.38;64.18;100938.02;1679237;85;21553;-69
2021/12/30 08:18:18;;;;;;;39.48;22.90;;;;;;;-0.51;64.24;100939.10;1679588;85;20971;-69
2021/12/30 08:20:45;;;;;;;51.15;27.05;;;;;;;-0.58;64.41;100949.98;1678112;85;21022;-68
2021/12/30 08:23:12;;;;;;;48.58;25.95;;;;;;;-0.68;64.67;100944.14;1677586;85;21208;-68
2021/12/30 08:25:41;;;;;;;47.93;24.80;;;;;;;-0.68;64.96;100942.33;1677740;84;21067;-68
2021/12/30 08:28:09;;;;;;;46.40;26.25;;;;;;;-0.63;65.10;100933.93;1677673;85;21043;-68
2021/12/30 08:30:37;;;;;;;46.30;25.27;;;;;;;-0.58;65.19;100927.17;1677537;85;21099;-66
2021/12/30 08:33:05;;;;;;;38.15;21.95;;;;;;;-0.52;65.24;100924.36;1678464;85;21117;-69
2021/12/30 08:35:34;;;;;;;43.52;24.18;;;;;;;-0.43;65.23;100930.34;1679331;85;21495;-68
2021/12/30 08:38:03;;;;;;;41.95;22.45;;;;;;;-0.47;65.07;100933.81;1679436;85;20976;-69
2021/12/30 08:40:31;;;;;;;41.20;22.15;;;;;;;-0.49;65.22;100930.57;1679477;85;21016;-68
2021/12/30 08:42:58;;;;;;;43.08;21.48;;;;;;;-0.52;65.21;100929.61;1679453;85;38573;-69
2021/12/30 08:45:26;;;;;;;38.70;21.00;;;;;;;-0.55;65.11;100926.02;1679757;85;21546;-68
2021/12/30 08:47:53;;;;;;;42.88;23.47;;;;;;;-0.60;65.15;100924.40;1682138;85;21126;-68
2021/12/30 08:50:19;;;;;;;45.15;25.23;;;;;;;-0.67;65.27;100917.72;1680257;84;21070;-71
2021/12/30 08:52:47;;;;;;;40.23;22.73;;;;;;;-0.63;65.44;100909.01;1664285;84;20955;-70
2021/12/30 08:55:15;;;;;;;41.98;23.42;;;;;;;-0.62;65.41;100914.59;1657610;86;20878;-70
2021/12/30 08:57:42;;;;;;;41.18;22.40;;;;;;;-0.66;65.49;100913.29;1650645;87;21008;-68
2021/12/30 09:00:19;;;;;;;39.98;21.20;;;;;;;-0.62;65.58;100923.28;1650469;87;21356;-67
2021/12/30 09:02:46;;;;;;;41.00;22.82;;;;;;;-0.60;65.53;100924.40;1647054;87;21035;-69
2021/12/30 09:05:13;;;;;;;44.15;23.65;;;;;;;-0.78;65.47;100924.69;1648603;87;21013;-68
2021/12/30 09:07:40;;;;;;;43.13;22.80;;;;;;;-0.88;65.74;100923.60;1650328;87;21082;-70
2021/12/30 09:10:09;;;;;;;45.33;23.80;;;;;;;-0.95;65.89;100933.97;1650765;87;21137;-70
2021/12/30 09:12:40;;;;;;;44.13;24.32;;;;;;;-0.96;66.10;100932.81;1650252;87;21581;-68
2021/12/30 09:15:09;;;;;;;44.58;23.45;;;;;;;-0.88;66.27;100924.91;1648298;87;21074;-68
2021/12/30 09:17:37;;;;;;;47.38;25.50;;;;;;;-0.84;66.32;100925.38;1648778;87;21107;-68
2021/12/30 09:20:06;;;;;;;50.95;25.97;;;;;;;-0.80;66.41;100927.97;1647830;87;21138;-68
2021/12/30 09:22:34;;;;;;;49.35;25.70;;;;;;;-0.70;66.53;100923.31;1648823;87;21174;-68
2021/12/30 09:25:05;;;;;;;47.50;25.75;;;;;;;-0.56;66.49;100929.61;1647564;87;21151;-68
2021/12/30 09:27:33;;;;;;;49.27;26.42;;;;;;;-0.51;66.36;100931.23;1646919;86;21538;-68
2021/12/30 09:30:02;;;;;;;39.27;22.10;;;;;;;-0.51;66.16;100934.67;1677291;85;21116;-68
2021/12/30 09:32:30;;;;;;;48.65;26.42;;;;;;;-0.53;65.99;100934.52;1678862;85;20984;-68
2021/12/30 09:34:56;;;;;;;48.52;25.25;;;;;;;-0.63;66.12;100930.00;1679451;85;21085;-69
2021/12/30 09:37:24;;;;;;;46.77;25.80;;;;;;;-0.62;66.28;100931.65;1679493;85;21194;-69
2021/12/30 09:39:50;;;;;;;46.02;24.23;;;;;;;-0.57;66.29;100934.55;1678122;85;21082;-69
2021/12/30 09:42:18;;;;;;;46.88;24.23;;;;;;;-0.54;66.27;100928.45;1677975;85;21040;-68
2021/12/30 09:44:45;;;;;;;37.30;18.77;;;;;;;-0.53;66.21;100922.70;1677514;85;21154;-70
2021/12/30 09:47:12;;;;;;;46.40;24.37;;;;;;;-0.55;66.18;100920.77;1678003;85;21448;-68
2021/12/30 09:49:38;;;;;;;51.15;24.85;;;;;;;-0.57;66.09;100910.44;1678000;85;21998;-69
2021/12/30 09:52:05;;;;;;;49.67;25.23;;;;;;;-0.53;66.21;100910.90;1677884;85;20973;-69
2021/12/30 09:54:36;;;;;;;45.20;23.73;;;;;;;-0.45;66.18;100908.23;1675906;85;21490;-69
2021/12/30 09:57:04;;;;;;;42.03;21.87;;;;;;;-0.38;66.06;100909.16;1673846;85;21518;-69
2021/12/30 09:59:31;;;;;;;46.00;24.30;;;;;;;-0.39;65.93;100900.16;1673849;85;21058;-69
2021/12/30 10:01:58;;;;;;;46.15;23.80;;;;;;;-0.40;65.87;100898.50;1673771;85;21477;-70
2021/12/30 10:04:31;;;;;;;50.17;25.90;;;;;;;-0.36;65.87;100903.24;1679381;85;21431;-69
2021/12/30 10:06:58;;;;;;;45.75;23.50;;;;;;;-0.29;65.84;100888.41;1679728;85;21574;-67
2021/12/30 10:09:45;;;;;;;42.20;21.75;;;;;;;-0.20;65.82;100886.52;1667868;85;21511;-69
2021/12/30 10:12:08;;;;;;;;;;;;;;;-0.10;65.65;100886.27;1654184;86;20956;-68
2021/12/30 10:14:37;;;;;;;49.88;25.12;;;;;;;-0.09;65.48;100889.22;1667676;85;22168;-67
2021/12/30 10:17:23;;;;;;;40.10;22.40;;;;;;;-0.10;65.34;100888.41;1667530;85;21015;-69
2021/12/30 10:19:53;;;;;;;43.40;24.20;;;;;;;-0.07;65.21;100899.03;1651861;86;21065;-69
2021/12/30 10:22:24;;;;;;;42.62;22.60;;;;;;;-0.07;65.17;100901.66;1652236;86;21075;-68
2021/12/30 10:24:51;;;;;;;40.50;22.25;;;;;;;-0.03;65.01;100890.64;1651880;86;21066;-68
2021/12/30 10:27:30;;;;;;;37.28;20.50;;;;;;;0.02;64.90;100884.02;1652057;86;21535;-68
2021/12/30 10:29:57;;;;;;;41.63;21.52;;;;;;;0.06;64.67;100885.29;1657420;85;21067;-68
2021/12/30 10:32:27;;;;;;;38.30;21.55;;;;;;;0.02;64.40;100891.91;1679573;85;20964;-68
2021/12/30 10:35:10;;;;;;;39.18;21.75;;;;;;;-0.03;64.33;100885.39;1653113;85;21581;-68
2021/12/30 10:37:40;;;;;;;38.58;22.02;;;;;;;-0.08;64.21;100881.66;1679930;85;21486;-67
2021/12/30 10:40:26;;;;;;;38.80;22.05;;;;;;;-0.13;64.15;100880.89;1679513;85;21505;-69
2021/12/30 10:43:13;;;;;;;39.15;21.15;;;;;;;-0.20;64.01;100872.58;1654512;85;20996;-69
2021/12/30 10:45:41;;;;;;;35.70;20.82;;;;;;;-0.27;64.14;100863.28;1655289;85;21039;-69
2021/12/30 10:48:09;;;;;;;36.28;20.80;;;;;;;-0.29;64.14;100863.48;1678214;85;21106;-69
2021/12/30 10:50:37;;;;;;;34.85;20.32;;;;;;;-0.31;64.12;100864.64;1677924;84;21055;-68
2021/12/30 10:53:03;;;;;;;31.97;17.98;;;;;;;-0.33;64.14;100863.52;1676995;85;22155;-68
2021/12/30 10:55:33;;;;;;;35.63;19.52;;;;;;;-0.35;64.08;100859.44;1659339;85;21503;-68
2021/12/30 10:58:01;;;;;;;34.45;19.20;;;;;;;-0.35;64.14;100855.50;1652364;86;21039;-68
2021/12/30 11:00:31;;;;;;;35.88;19.37;;;;;;;-0.35;64.01;100852.38;1597092;86;21058;-68
2021/12/30 11:03:24;;;;;;;31.02;17.42;;;;;;;-0.38;64.10;100854.04;1677953;85;21546;-68
2021/12/30 11:06:14;;;;;;;34.08;19.05;;;;;;;-0.36;64.18;100850.75;1679381;85;21129;-68
2021/12/30 11:08:43;;;;;;;28.38;17.07;;;;;;;-0.30;64.31;100851.33;1679466;85;21019;-68
2021/12/30 11:11:26;;;;;;;23.45;13.15;;;;;;;-0.18;64.37;100844.34;1679155;85;21036;-68
2021/12/30 11:14:05;;;;;;;25.88;14.50;;;;;;;-0.18;64.23;100837.28;1679474;85;21019;-68
2021/12/30 11:16:33;;;;;;;22.05;12.05;;;;;;;-0.16;64.20;100839.75;1679424;85;21096;-67
2021/12/30 11:19:05;;;;;;;23.77;14.45;;;;;;;-0.10;64.15;100842.94;1679945;85;21077;-68